Alexandra — WDD5677 — position and weather

sailwx.info

Track history (hours):
 
Tides and Currents Weather Stations Pressure Air Temp Water Temp Dewpoint Dewpoint Depression Visibility Wind Speed Wind Dir Waves Ship Positions

Alexandra

Owner: Weeks Marine, Inc., Cranford, NJ. More information available from US FCC via Universal Licensing System and Coast Guard Vessel Documentation Center.

Last reported at 2017-Apr-22 23:49 UTC. Time now 2017-Apr-23 23:41 UTC.
Position N 39°31' W 074°11'.

Length 37 m; draft 5 m.

Type: Tug. MMSI: 367161950.

Date/timePositionNaut miles runAvg speedWind from/ knotsBaromVisibWave heightAir tempDewpointWater temp
2017-Apr-22 23:49N 39°31' W 074°11'411.6
2017-Apr-22 23:30N 39°35' W 074°09'611.6
2017-Apr-22 23:00N 39°40' W 074°06'611.6
2017-Apr-22 22:29N 39°45' W 074°03'2011.8
2017-Apr-22 20:46N 40°06' W 074°00'2111.6
2017-Apr-22 18:56N 40°27' W 073°57'5 8.9
2017-Apr-22 18:19N 40°31' W 074°02'3 9.7
2017-Apr-22 18:00N 40°34' W 074°02'611.2
2017-Apr-22 17:30N 40°39' W 074°05'2 3.1
2017-Apr-22 17:00N 40°39' W 074°07'0 0.0
2017-Apr-22 16:30N 40°39' W 074°07'0 0.0
2017-Apr-22 16:00N 40°39' W 074°07'0 0.0
2017-Apr-22 15:30N 40°39' W 074°07'0 0.0
2017-Apr-22 15:00N 40°39' W 074°07'0 0.0
2017-Apr-22 14:30N 40°39' W 074°07'0 0.0
2017-Apr-22 13:30N 40°39' W 074°07'0 0.0
2017-Apr-22 13:00N 40°39' W 074°07'0 0.0
2017-Apr-22 12:30N 40°39' W 074°07'1 1.5
2017-Apr-22 12:01N 40°39' W 074°06'2 3.7
2017-Apr-22 11:30N 40°41' W 074°05'0 0.0
2017-Apr-22 11:00N 40°41' W 074°05'0 0.0
2017-Apr-22 10:30N 40°41' W 074°05'0 0.0
2017-Apr-22 10:00N 40°41' W 074°05'0 0.0
2017-Apr-22 09:30N 40°41' W 074°05'0 0.0
2017-Apr-22 09:00N 40°41' W 074°05'0 0.0
2017-Apr-22 08:30N 40°41' W 074°05'0 0.0
2017-Apr-22 08:00N 40°41' W 074°05'0 0.0
2017-Apr-22 07:30N 40°41' W 074°05'0 0.0
2017-Apr-22 07:00N 40°41' W 074°05'0 0.0
2017-Apr-22 06:30N 40°41' W 074°05'0 0.0
2017-Apr-22 06:00N 40°41' W 074°05'0 0.0
2017-Apr-22 05:30N 40°41' W 074°05'0 0.0
2017-Apr-22 05:00N 40°41' W 074°05'0 0.1
2017-Apr-22 04:30N 40°41' W 074°04'2 4.0
2017-Apr-22 04:00N 40°41' W 074°02'5 9.5
2017-Apr-22 03:30N 40°45' W 073°58'5 9.1
2017-Apr-22 02:56N 40°48' W 073°52'4 7.7
2017-Apr-22 02:22N 40°49' W 073°47'5610.3
2017-Apr-21 20:54N 41°08' W 072°37'512.1
2017-Apr-21 20:30N 41°09' W 072°31'612.2
2017-Apr-21 20:00N 41°10' W 072°23'51 9.3
2017-Apr-21 14:30N 41°32' W 071°21'5 0.8
2017-Apr-21 08:40N 41°37' W 071°24'0 0.0
2017-Apr-21 08:30N 41°37' W 071°24'0 0.0
2017-Apr-21 07:49N 41°37' W 071°24'0 0.0
2017-Apr-21 07:30N 41°37' W 071°24'0 0.0
2017-Apr-21 06:16N 41°37' W 071°24'0 0.0
2017-Apr-21 06:00N 41°37' W 071°24'0 0.0
2017-Apr-21 05:29N 41°37' W 071°24'0 0.0
2017-Apr-21 00:12N 41°37' W 071°24'2 5.7
2017-Apr-20 23:51N 41°35' W 071°23'4 5.3
2017-Apr-20 23:11N 41°32' W 071°21'119 8.2
2017-Apr-20 08:46N 40°48' W 073°48'3 9.5
2017-Apr-20 08:30N 40°48' W 073°51'5 9.1
2017-Apr-20 08:00N 40°46' W 073°57'511.1
2017-Apr-20 07:30N 40°42' W 074°01'3 5.8
2017-Apr-20 07:00N 40°40' W 074°04'0 0.9
2017-Apr-20 06:30N 40°41' W 074°05'0 0.0
2017-Apr-20 06:00N 40°41' W 074°05'0 0.0
2017-Apr-20 05:30N 40°41' W 074°05'0 0.0
2017-Apr-20 05:00N 40°41' W 074°05'0 0.0
2017-Apr-20 04:30N 40°41' W 074°05'0 0.0
2017-Apr-20 04:00N 40°41' W 074°05'0 0.0
2017-Apr-20 03:30N 40°41' W 074°05'0 0.0
2017-Apr-20 03:00N 40°41' W 074°05'0 0.0
2017-Apr-20 02:30N 40°41' W 074°05'0 0.0
2017-Apr-20 02:00N 40°41' W 074°05'0 0.0
2017-Apr-20 01:30N 40°41' W 074°05'0 0.0
2017-Apr-20 01:00N 40°41' W 074°05'0 0.0
2017-Apr-20 00:30N 40°41' W 074°05'0 0.0
2017-Apr-20 00:00N 40°41' W 074°05'0 0.0
2017-Apr-19 23:30N 40°41' W 074°05'0 0.0
2017-Apr-19 23:00N 40°41' W 074°05'0 0.0
2017-Apr-19 22:30N 40°41' W 074°05'0 0.0
2017-Apr-19 22:00N 40°41' W 074°05'0 0.0
2017-Apr-19 21:30N 40°41' W 074°05'0 0.0
2017-Apr-19 21:00N 40°41' W 074°05'0 0.2
2017-Apr-19 20:30N 40°41' W 074°04'0 0.3
2017-Apr-19 20:00N 40°41' W 074°05'0 0.0
2017-Apr-19 19:30N 40°41' W 074°05'0 0.0
2017-Apr-19 19:00N 40°41' W 074°05'0 0.0
2017-Apr-19 18:30N 40°41' W 074°05'0 0.0
2017-Apr-19 18:00N 40°41' W 074°05'0 0.0
2017-Apr-19 17:30N 40°41' W 074°05'0 0.0
2017-Apr-19 17:00N 40°41' W 074°05'0 0.0
2017-Apr-19 16:30N 40°41' W 074°05'0 0.0
2017-Apr-19 16:00N 40°41' W 074°05'1 2.1
2017-Apr-19 15:30N 40°40' W 074°04'2 4.2
2017-Apr-19 15:00N 40°40' W 074°01'0 0.1
2017-Apr-19 14:30N 40°40' W 074°01'0 0.0
2017-Apr-19 13:30N 40°40' W 074°01'0 0.0
2017-Apr-19 13:00N 40°40' W 074°01'0 0.0
2017-Apr-19 12:30N 40°40' W 074°01'0 0.1
2017-Apr-19 12:00N 40°40' W 074°01'0 0.0
2017-Apr-19 11:30N 40°40' W 074°01'0 0.1
2017-Apr-19 11:00N 40°40' W 074°01'2 3.9
2017-Apr-19 10:30N 40°39' W 074°04'1 2.7
2017-Apr-19 10:00N 40°41' W 074°05'0 0.0
2017-Apr-19 09:30N 40°41' W 074°05'0 0.0
2017-Apr-19 09:00N 40°41' W 074°05'0 0.0
2017-Apr-19 08:30N 40°41' W 074°05'0 0.0
2017-Apr-19 08:00N 40°41' W 074°05'0 0.0
2017-Apr-19 07:30N 40°41' W 074°05'0 0.0
2017-Apr-19 07:00N 40°41' W 074°05'0 0.0
2017-Apr-19 06:30N 40°41' W 074°05'0 0.0
2017-Apr-19 06:00N 40°41' W 074°05'0 0.0
2017-Apr-19 05:30N 40°41' W 074°05'0 0.0
2017-Apr-19 05:00N 40°41' W 074°05'0 0.0
2017-Apr-19 04:30N 40°41' W 074°05'0 0.0
2017-Apr-19 04:00N 40°41' W 074°05'0 0.0
2017-Apr-19 03:30N 40°41' W 074°05'0 0.0
2017-Apr-19 03:00N 40°41' W 074°05'0 0.0
2017-Apr-19 02:30N 40°41' W 074°05'0 0.0
2017-Apr-19 02:00N 40°41' W 074°05'0 0.0
2017-Apr-19 01:30N 40°41' W 074°05'0 0.0
2017-Apr-19 01:00N 40°41' W 074°05'0 0.0
2017-Apr-19 00:30N 40°41' W 074°05'0 0.0
2017-Apr-19 00:00N 40°41' W 074°05'0 0.0
2017-Apr-18 23:30N 40°41' W 074°05'0 0.0
2017-Apr-18 23:00N 40°41' W 074°05'0 0.0
2017-Apr-18 22:30N 40°41' W 074°05'0 0.0
2017-Apr-18 22:00N 40°41' W 074°05'0 0.0
2017-Apr-18 21:30N 40°41' W 074°05'0 0.0
2017-Apr-18 21:00N 40°41' W 074°05'0 0.0
2017-Apr-18 20:30N 40°41' W 074°05'0 0.0
2017-Apr-18 20:00N 40°41' W 074°05'0 0.0
2017-Apr-18 19:30N 40°41' W 074°05'0 0.1
2017-Apr-18 19:00N 40°41' W 074°05'0 0.0
2017-Apr-18 18:30N 40°41' W 074°05'0 0.1
2017-Apr-18 18:01N 40°41' W 074°05'0 0.0
2017-Apr-18 17:30N 40°41' W 074°05'0 0.0
2017-Apr-18 17:00N 40°41' W 074°05'0 0.0
2017-Apr-18 16:30N 40°41' W 074°05'0 0.1
2017-Apr-18 16:00N 40°41' W 074°05'0 0.0
2017-Apr-18 15:30N 40°41' W 074°05'0 0.0
2017-Apr-18 15:00N 40°41' W 074°05'0 0.0
2017-Apr-18 14:30N 40°41' W 074°05'0 0.0
2017-Apr-18 13:30N 40°41' W 074°05'0 0.0
2017-Apr-18 13:00N 40°41' W 074°05'0 0.0
2017-Apr-18 12:31N 40°41' W 074°05'0 0.0
2017-Apr-18 12:00N 40°41' W 074°05'0 0.0
2017-Apr-18 11:30N 40°41' W 074°05'0 0.0
2017-Apr-18 11:00N 40°41' W 074°05'0 0.1
2017-Apr-18 10:30N 40°41' W 074°05'0 0.0
2017-Apr-18 10:00N 40°41' W 074°05'0 0.0
2017-Apr-18 09:30N 40°41' W 074°05'0 0.0
2017-Apr-18 09:00N 40°41' W 074°05'0 0.0
2017-Apr-18 08:30N 40°41' W 074°05'0 0.0
2017-Apr-18 08:00N 40°41' W 074°05'0 0.0
2017-Apr-18 07:30N 40°41' W 074°05'0 0.0
2017-Apr-18 07:00N 40°41' W 074°05'0 0.0
2017-Apr-18 06:30N 40°41' W 074°05'0 0.0
2017-Apr-18 06:00N 40°41' W 074°05'0 0.0
2017-Apr-18 05:30N 40°41' W 074°05'0 0.0
2017-Apr-18 05:00N 40°41' W 074°05'0 0.0
2017-Apr-18 04:30N 40°41' W 074°05'0 0.0
2017-Apr-18 04:00N 40°41' W 074°05'0 0.0
2017-Apr-18 03:30N 40°41' W 074°05'0 0.0
2017-Apr-18 03:00N 40°41' W 074°05'0 0.0
2017-Apr-18 02:30N 40°41' W 074°05'0 0.0
2017-Apr-18 02:00N 40°41' W 074°05'0 0.0
2017-Apr-18 01:30N 40°41' W 074°05'0 0.0
2017-Apr-18 01:00N 40°41' W 074°05'0 0.0
2017-Apr-18 00:30N 40°41' W 074°05'0 0.4
2017-Apr-18 00:00N 40°40' W 074°04'1 1.2
2017-Apr-17 23:30N 40°40' W 074°04'2 4.7
2017-Apr-17 23:00N 40°41' W 074°01'2 4.7
2017-Apr-17 22:30N 40°42' W 073°58'0 0.1
2017-Apr-17 22:00N 40°42' W 073°58'0 0.0
2017-Apr-17 21:30N 40°42' W 073°58'0 0.0
2017-Apr-17 21:00N 40°42' W 073°58'0 0.0
2017-Apr-17 20:30N 40°42' W 073°58'0 0.0
2017-Apr-17 20:00N 40°42' W 073°58'0 0.0
2017-Apr-17 19:30N 40°42' W 073°58'0 0.0
2017-Apr-17 19:00N 40°42' W 073°58'0 0.0
2017-Apr-17 18:30N 40°42' W 073°58'2 3.8
2017-Apr-17 18:00N 40°41' W 074°01'3 6.1
2017-Apr-17 17:31N 40°41' W 074°04'0 0.2
2017-Apr-17 17:00N 40°41' W 074°05'0 0.0
2017-Apr-17 16:30N 40°41' W 074°05'0 0.0
2017-Apr-17 16:00N 40°41' W 074°05'0 0.0
2017-Apr-17 15:30N 40°41' W 074°05'0 0.0
2017-Apr-17 15:00N 40°41' W 074°05'0 0.0
2017-Apr-17 14:30N 40°41' W 074°05'0 0.0
2017-Apr-17 13:30N 40°41' W 074°05'0 0.0
2017-Apr-17 13:00N 40°41' W 074°05'2 3.4
2017-Apr-17 12:30N 40°39' W 074°03'2 3.4
2017-Apr-17 12:00N 40°40' W 074°01'0 0.1
2017-Apr-17 11:30N 40°40' W 074°01'0 0.1
2017-Apr-17 11:00N 40°40' W 074°01'0 0.6
2017-Apr-17 10:30N 40°39' W 074°01'2 4.2
2017-Apr-17 10:00N 40°40' W 074°04'0 0.6
2017-Apr-17 09:30N 40°40' W 074°04'0 0.0
2017-Apr-17 09:00N 40°40' W 074°04'0 0.0
2017-Apr-17 08:30N 40°40' W 074°04'0 0.0
2017-Apr-17 08:00N 40°40' W 074°04'0 0.0
2017-Apr-17 07:30N 40°40' W 074°04'0 0.0
2017-Apr-17 07:00N 40°40' W 074°04'0 0.0
2017-Apr-17 06:30N 40°40' W 074°04'0 0.0
2017-Apr-17 06:00N 40°40' W 074°04'0 0.0
2017-Apr-17 05:30N 40°40' W 074°04'0 0.0
2017-Apr-17 05:00N 40°40' W 074°04'0 0.0
2017-Apr-17 04:30N 40°40' W 074°04'0 0.0
2017-Apr-17 04:00N 40°40' W 074°04'0 0.0
2017-Apr-17 03:30N 40°40' W 074°04'0 0.0
2017-Apr-17 03:00N 40°40' W 074°04'0 0.0
2017-Apr-17 02:30N 40°40' W 074°04'0 0.0
2017-Apr-17 02:00N 40°40' W 074°04'0 0.0
2017-Apr-17 01:30N 40°40' W 074°04'0 0.0
2017-Apr-17 01:00N 40°40' W 074°04'0 0.0
2017-Apr-17 00:30N 40°40' W 074°04'0 0.0
2017-Apr-17 00:00N 40°40' W 074°04'0 0.0
2017-Apr-16 23:30N 40°40' W 074°04'0 0.0
2017-Apr-16 23:00N 40°40' W 074°04'0 0.0
2017-Apr-16 22:30N 40°40' W 074°04'0 0.0
2017-Apr-16 22:00N 40°40' W 074°04'0 0.0
2017-Apr-16 21:30N 40°40' W 074°04'0 0.5
2017-Apr-16 21:00N 40°41' W 074°05'0 0.0
2017-Apr-16 20:30N 40°41' W 074°05'0 0.0
2017-Apr-16 20:00N 40°41' W 074°05'0 0.0
2017-Apr-16 19:30N 40°41' W 074°05'0 0.0
2017-Apr-16 19:00N 40°41' W 074°05'0 0.0
2017-Apr-16 18:30N 40°41' W 074°05'0 0.0
2017-Apr-16 18:00N 40°41' W 074°05'0 0.0
2017-Apr-16 17:30N 40°41' W 074°05'0 0.0
2017-Apr-16 17:00N 40°41' W 074°05'0 0.0
2017-Apr-16 16:30N 40°41' W 074°05'0 0.0
2017-Apr-16 16:00N 40°41' W 074°05'0 0.0
2017-Apr-16 15:30N 40°41' W 074°05'0 0.0
2017-Apr-16 15:00N 40°41' W 074°05'0 0.0
2017-Apr-16 14:00N 40°41' W 074°05'0 0.0
2017-Apr-16 13:30N 40°41' W 074°05'0 0.0
2017-Apr-16 13:00N 40°41' W 074°05'0 0.0
2017-Apr-16 12:30N 40°41' W 074°05'0 0.0
2017-Apr-16 12:00N 40°41' W 074°05'0 0.0
2017-Apr-16 11:30N 40°41' W 074°05'0 0.0
2017-Apr-16 11:00N 40°41' W 074°05'0 0.0
2017-Apr-16 10:30N 40°41' W 074°05'0 0.0
2017-Apr-16 10:00N 40°41' W 074°05'0 0.0
2017-Apr-16 09:30N 40°41' W 074°05'0 0.0
2017-Apr-16 09:00N 40°41' W 074°05'0 0.0
2017-Apr-16 08:30N 40°41' W 074°05'0 0.0
2017-Apr-16 08:00N 40°41' W 074°05'0 0.0
2017-Apr-16 07:30N 40°41' W 074°05'0 0.0
2017-Apr-16 07:00N 40°41' W 074°05'0 0.0
2017-Apr-16 06:30N 40°41' W 074°05'0 0.0
2017-Apr-16 06:00N 40°41' W 074°05'0 0.0
2017-Apr-16 05:30N 40°41' W 074°05'0 0.0
2017-Apr-16 05:00N 40°41' W 074°05'0 0.0
2017-Apr-16 04:30N 40°41' W 074°05'0 0.0
2017-Apr-16 04:00N 40°41' W 074°05'0 0.0
2017-Apr-16 03:30N 40°41' W 074°05'0 0.0
2017-Apr-16 03:00N 40°41' W 074°05'0 0.0
2017-Apr-16 02:30N 40°41' W 074°05'0 0.0
2017-Apr-16 02:00N 40°41' W 074°05'0 0.0
2017-Apr-16 01:31N 40°41' W 074°05'0 0.0
2017-Apr-16 01:00N 40°41' W 074°05'0 0.0
2017-Apr-16 00:30N 40°41' W 074°05'0 0.0
2017-Apr-16 00:00N 40°41' W 074°05'0 0.0
2017-Apr-15 23:30N 40°41' W 074°05'0 0.0
2017-Apr-15 23:00N 40°41' W 074°05'0 0.0
2017-Apr-15 22:30N 40°41' W 074°05'0 0.0
2017-Apr-15 22:00N 40°41' W 074°05'0 0.0
2017-Apr-15 21:30N 40°41' W 074°05'0 0.0
2017-Apr-15 21:00N 40°41' W 074°05'0 0.0
2017-Apr-15 20:30N 40°41' W 074°05'0 0.0
2017-Apr-15 20:00N 40°41' W 074°05'0 0.0
2017-Apr-15 19:30N 40°41' W 074°05'0 0.0
2017-Apr-15 19:00N 40°41' W 074°05'0 0.0
2017-Apr-15 18:30N 40°41' W 074°05'0 0.0
2017-Apr-15 18:00N 40°41' W 074°05'0 0.0
2017-Apr-15 17:30N 40°41' W 074°05'0 0.0
2017-Apr-15 17:00N 40°41' W 074°05'0 0.0
2017-Apr-15 16:30N 40°41' W 074°05'0 0.0
2017-Apr-15 16:00N 40°41' W 074°05'0 0.0
2017-Apr-15 15:30N 40°41' W 074°05'0 0.0
2017-Apr-15 15:00N 40°41' W 074°05'0 0.0
2017-Apr-15 14:00N 40°41' W 074°05'0 0.0
2017-Apr-15 13:30N 40°41' W 074°05'0 0.0
2017-Apr-15 13:00N 40°41' W 074°05'0 0.0
2017-Apr-15 12:30N 40°41' W 074°05'0 0.0
2017-Apr-15 12:00N 40°41' W 074°05'0 0.0
2017-Apr-15 11:30N 40°41' W 074°05'0 0.0
2017-Apr-15 11:00N 40°41' W 074°05'0 0.0
2017-Apr-15 10:30N 40°41' W 074°05'0 0.0
2017-Apr-15 10:00N 40°41' W 074°05'0 0.0
2017-Apr-15 09:30N 40°41' W 074°05'0 0.0
2017-Apr-15 09:00N 40°41' W 074°05'0 0.0
2017-Apr-15 08:30N 40°41' W 074°05'0 0.0
2017-Apr-15 08:00N 40°41' W 074°05'0 0.0
2017-Apr-15 07:30N 40°41' W 074°05'0 0.0
2017-Apr-15 07:00N 40°41' W 074°05'0 0.0
2017-Apr-15 06:30N 40°41' W 074°05'0 0.0
2017-Apr-15 06:00N 40°41' W 074°05'0 0.0
2017-Apr-15 05:30N 40°41' W 074°05'0 0.0
2017-Apr-15 05:00N 40°41' W 074°05'0 0.0
2017-Apr-15 04:30N 40°41' W 074°05'0 0.0
2017-Apr-15 04:00N 40°41' W 074°05'0 0.0
2017-Apr-15 03:30N 40°41' W 074°05'0 0.0
2017-Apr-15 03:00N 40°41' W 074°05'0 0.0
2017-Apr-15 02:30N 40°41' W 074°05'0 0.0
2017-Apr-15 02:00N 40°41' W 074°05'0 0.0
2017-Apr-15 01:30N 40°41' W 074°05'0 0.0
2017-Apr-15 01:00N 40°41' W 074°05'0 0.0
2017-Apr-15 00:30N 40°41' W 074°05'0 0.0
2017-Apr-15 00:00N 40°41' W 074°05'0 0.0
2017-Apr-14 23:30N 40°41' W 074°05'0 0.0
2017-Apr-14 23:00N 40°41' W 074°05'0 0.0
2017-Apr-14 22:30N 40°41' W 074°05'0 0.0
2017-Apr-14 22:00N 40°41' W 074°05'0 0.0
2017-Apr-14 21:30N 40°41' W 074°05'0 0.0
2017-Apr-14 21:00N 40°41' W 074°05'0 0.0
2017-Apr-14 20:30N 40°41' W 074°05'0 0.0
2017-Apr-14 20:00N 40°41' W 074°05'0 0.0
2017-Apr-14 19:30N 40°41' W 074°05'0 0.0
2017-Apr-14 19:00N 40°41' W 074°05'0 0.4
2017-Apr-14 18:30N 40°41' W 074°04'0 0.2
2017-Apr-14 18:00N 40°40' W 074°04'0 0.1
2017-Apr-14 17:30N 40°40' W 074°04'0 0.2
2017-Apr-14 17:00N 40°41' W 074°05'0 0.0
2017-Apr-14 16:30N 40°41' W 074°05'0 0.0
2017-Apr-14 16:00N 40°41' W 074°05'0 0.0
2017-Apr-14 15:30N 40°41' W 074°05'0 0.0
2017-Apr-14 15:00N 40°41' W 074°05'0 0.0
2017-Apr-14 14:30N 40°41' W 074°05'0 0.0
2017-Apr-14 13:30N 40°41' W 074°05'0 0.0
2017-Apr-14 13:00N 40°41' W 074°05'0 0.0
2017-Apr-14 12:30N 40°41' W 074°05'0 0.0
2017-Apr-14 12:01N 40°41' W 074°05'0 0.0
2017-Apr-14 11:31N 40°41' W 074°05'0 0.0
2017-Apr-14 11:00N 40°41' W 074°05'0 0.0
2017-Apr-14 10:30N 40°41' W 074°05'0 0.0
2017-Apr-14 10:00N 40°41' W 074°05'0 0.0
2017-Apr-14 09:30N 40°41' W 074°05'0 0.0
2017-Apr-14 09:00N 40°41' W 074°05'0 0.0
2017-Apr-14 08:30N 40°41' W 074°05'0 0.0
2017-Apr-14 08:00N 40°41' W 074°05'0 0.0
2017-Apr-14 07:30N 40°41' W 074°05'0 0.0
2017-Apr-14 07:00N 40°41' W 074°05'0 0.0
2017-Apr-14 06:30N 40°41' W 074°05'0 0.0
2017-Apr-14 06:00N 40°41' W 074°05'0 0.0
2017-Apr-14 05:30N 40°41' W 074°05'0 0.0
2017-Apr-14 05:00N 40°41' W 074°05'0 0.0
2017-Apr-14 04:30N 40°41' W 074°05'0 0.0
2017-Apr-14 04:00N 40°41' W 074°05'0 0.0
2017-Apr-14 03:30N 40°41' W 074°05'0 0.0
2017-Apr-14 03:00N 40°41' W 074°05'0 0.0
2017-Apr-14 02:30N 40°41' W 074°05'0 0.0
2017-Apr-14 02:00N 40°41' W 074°05'0 0.0
2017-Apr-14 01:30N 40°41' W 074°05'0 0.0
2017-Apr-14 01:00N 40°41' W 074°05'0 0.0
2017-Apr-14 00:30N 40°41' W 074°05'0 0.0
2017-Apr-14 00:00N 40°41' W 074°05'0 0.0
2017-Apr-13 23:30N 40°41' W 074°05'0 0.0
2017-Apr-13 23:00N 40°41' W 074°05'0 0.0
2017-Apr-13 22:30N 40°41' W 074°05'0 0.0
2017-Apr-13 22:00N 40°41' W 074°05'0 0.0
2017-Apr-13 21:30N 40°41' W 074°05'0 0.0
2017-Apr-13 21:00N 40°41' W 074°05'0 0.0
2017-Apr-13 20:30N 40°41' W 074°05'0 0.0
2017-Apr-13 20:00N 40°41' W 074°05'0 0.0
2017-Apr-13 19:30N 40°41' W 074°05'0 0.0
2017-Apr-13 19:00N 40°41' W 074°05'0 0.0
2017-Apr-13 18:30N 40°41' W 074°05'0 0.0
2017-Apr-13 18:00N 40°41' W 074°05'0 0.0
2017-Apr-13 17:30N 40°41' W 074°05'0 0.0
2017-Apr-13 17:00N 40°41' W 074°05'0 0.0
2017-Apr-13 16:30N 40°41' W 074°05'0 0.0
2017-Apr-13 16:00N 40°41' W 074°05'0 0.0
2017-Apr-13 15:30N 40°41' W 074°05'0 0.0
2017-Apr-13 15:00N 40°41' W 074°05'0 0.0
2017-Apr-13 14:00N 40°41' W 074°05'0 0.5
2017-Apr-13 13:31N 40°40' W 074°04'2 3.0
2017-Apr-13 13:00N 40°39' W 074°05'0 0.1
2017-Apr-13 12:30N 40°39' W 074°05'0 0.0
2017-Apr-13 12:00N 40°39' W 074°05'0 0.0
2017-Apr-13 11:30N 40°39' W 074°05'0 0.0
2017-Apr-13 11:00N 40°39' W 074°05'0 0.0
2017-Apr-13 10:30N 40°39' W 074°05'2 3.2
2017-Apr-13 10:00N 40°40' W 074°04'0 0.9
2017-Apr-13 09:30N 40°41' W 074°05'0 0.0
2017-Apr-13 09:00N 40°41' W 074°05'0 0.0
2017-Apr-13 08:30N 40°41' W 074°05'0 0.0
2017-Apr-13 08:00N 40°41' W 074°05'0 0.0
2017-Apr-13 07:30N 40°41' W 074°05'0 0.0
2017-Apr-13 07:00N 40°41' W 074°05'0 0.0
2017-Apr-13 06:30N 40°41' W 074°05'0 0.0
2017-Apr-13 06:00N 40°41' W 074°05'0 0.0
2017-Apr-13 05:30N 40°41' W 074°05'0 0.0
2017-Apr-13 05:00N 40°41' W 074°05'0 0.0
2017-Apr-13 04:30N 40°41' W 074°05'0 0.0
2017-Apr-13 04:00N 40°41' W 074°05'0 0.0
2017-Apr-13 03:30N 40°41' W 074°05'0 0.0
2017-Apr-13 03:00N 40°41' W 074°05'0 0.0
2017-Apr-13 02:30N 40°41' W 074°05'0 0.0
2017-Apr-13 02:00N 40°41' W 074°05'0 0.0
2017-Apr-13 01:30N 40°41' W 074°05'0 0.0
2017-Apr-13 01:00N 40°41' W 074°05'0 0.0
2017-Apr-13 00:30N 40°41' W 074°05'0 0.0
2017-Apr-13 00:00N 40°41' W 074°05'  
Track history (hours):
 
Tides and Currents Weather Stations Pressure Air Temp Water Temp Dewpoint Dewpoint Depression Visibility Wind Speed Wind Dir Waves Ship Positions

Alexandra

Owner: Weeks Marine, Inc., Cranford, NJ. More information available from US FCC via Universal Licensing System and Coast Guard Vessel Documentation Center.

Last reported at 2017-Apr-22 23:49 UTC. Time now 2017-Apr-23 23:41 UTC.
Position N 39°31' W 074°11'.

Length 37 m; draft 5 m.

Type: Tug. MMSI: 367161950.

Date/timePositionNaut miles runAvg speedWind from/ knotsBaromVisibWave heightAir tempDewpointWater temp
2017-Apr-22 23:49N 39°31' W 074°11'411.6
2017-Apr-22 23:30N 39°35' W 074°09'611.6
2017-Apr-22 23:00N 39°40' W 074°06'611.6
2017-Apr-22 22:29N 39°45' W 074°03'2011.8
2017-Apr-22 20:46N 40°06' W 074°00'2111.6
2017-Apr-22 18:56N 40°27' W 073°57'5 8.9
2017-Apr-22 18:19N 40°31' W 074°02'3 9.7
2017-Apr-22 18:00N 40°34' W 074°02'611.2
2017-Apr-22 17:30N 40°39' W 074°05'2 3.1
2017-Apr-22 17:00N 40°39' W 074°07'0 0.0
2017-Apr-22 16:30N 40°39' W 074°07'0 0.0
2017-Apr-22 16:00N 40°39' W 074°07'0 0.0
2017-Apr-22 15:30N 40°39' W 074°07'0 0.0
2017-Apr-22 15:00N 40°39' W 074°07'0 0.0
2017-Apr-22 14:30N 40°39' W 074°07'0 0.0
2017-Apr-22 13:30N 40°39' W 074°07'0 0.0
2017-Apr-22 13:00N 40°39' W 074°07'0 0.0
2017-Apr-22 12:30N 40°39' W 074°07'1 1.5
2017-Apr-22 12:01N 40°39' W 074°06'2 3.7
2017-Apr-22 11:30N 40°41' W 074°05'0 0.0
2017-Apr-22 11:00N 40°41' W 074°05'0 0.0
2017-Apr-22 10:30N 40°41' W 074°05'0 0.0
2017-Apr-22 10:00N 40°41' W 074°05'0 0.0
2017-Apr-22 09:30N 40°41' W 074°05'0 0.0
2017-Apr-22 09:00N 40°41' W 074°05'0 0.0
2017-Apr-22 08:30N 40°41' W 074°05'0 0.0
2017-Apr-22 08:00N 40°41' W 074°05'0 0.0
2017-Apr-22 07:30N 40°41' W 074°05'0 0.0
2017-Apr-22 07:00N 40°41' W 074°05'0 0.0
2017-Apr-22 06:30N 40°41' W 074°05'0 0.0
2017-Apr-22 06:00N 40°41' W 074°05'0 0.0
2017-Apr-22 05:30N 40°41' W 074°05'0 0.0
2017-Apr-22 05:00N 40°41' W 074°05'0 0.1
2017-Apr-22 04:30N 40°41' W 074°04'2 4.0
2017-Apr-22 04:00N 40°41' W 074°02'5 9.5
2017-Apr-22 03:30N 40°45' W 073°58'5 9.1
2017-Apr-22 02:56N 40°48' W 073°52'4 7.7
2017-Apr-22 02:22N 40°49' W 073°47'5610.3
2017-Apr-21 20:54N 41°08' W 072°37'512.1
2017-Apr-21 20:30N 41°09' W 072°31'612.2
2017-Apr-21 20:00N 41°10' W 072°23'51 9.3
2017-Apr-21 14:30N 41°32' W 071°21'5 0.8
2017-Apr-21 08:40N 41°37' W 071°24'0 0.0
2017-Apr-21 08:30N 41°37' W 071°24'0 0.0
2017-Apr-21 07:49N 41°37' W 071°24'0 0.0
2017-Apr-21 07:30N 41°37' W 071°24'0 0.0
2017-Apr-21 06:16N 41°37' W 071°24'0 0.0
2017-Apr-21 06:00N 41°37' W 071°24'0 0.0
2017-Apr-21 05:29N 41°37' W 071°24'0 0.0
2017-Apr-21 00:12N 41°37' W 071°24'2 5.7
2017-Apr-20 23:51N 41°35' W 071°23'4 5.3
2017-Apr-20 23:11N 41°32' W 071°21'119 8.2
2017-Apr-20 08:46N 40°48' W 073°48'3 9.5
2017-Apr-20 08:30N 40°48' W 073°51'5 9.1
2017-Apr-20 08:00N 40°46' W 073°57'511.1
2017-Apr-20 07:30N 40°42' W 074°01'3 5.8
2017-Apr-20 07:00N 40°40' W 074°04'0 0.9
2017-Apr-20 06:30N 40°41' W 074°05'0 0.0
2017-Apr-20 06:00N 40°41' W 074°05'0 0.0
2017-Apr-20 05:30N 40°41' W 074°05'0 0.0
2017-Apr-20 05:00N 40°41' W 074°05'0 0.0
2017-Apr-20 04:30N 40°41' W 074°05'0 0.0
2017-Apr-20 04:00N 40°41' W 074°05'0 0.0
2017-Apr-20 03:30N 40°41' W 074°05'0 0.0
2017-Apr-20 03:00N 40°41' W 074°05'0 0.0
2017-Apr-20 02:30N 40°41' W 074°05'0 0.0
2017-Apr-20 02:00N 40°41' W 074°05'0 0.0
2017-Apr-20 01:30N 40°41' W 074°05'0 0.0
2017-Apr-20 01:00N 40°41' W 074°05'0 0.0
2017-Apr-20 00:30N 40°41' W 074°05'0 0.0
2017-Apr-20 00:00N 40°41' W 074°05'0 0.0
2017-Apr-19 23:30N 40°41' W 074°05'0 0.0
2017-Apr-19 23:00N 40°41' W 074°05'0 0.0
2017-Apr-19 22:30N 40°41' W 074°05'0 0.0
2017-Apr-19 22:00N 40°41' W 074°05'0 0.0
2017-Apr-19 21:30N 40°41' W 074°05'0 0.0
2017-Apr-19 21:00N 40°41' W 074°05'0 0.2
2017-Apr-19 20:30N 40°41' W 074°04'0 0.3
2017-Apr-19 20:00N 40°41' W 074°05'0 0.0
2017-Apr-19 19:30N 40°41' W 074°05'0 0.0
2017-Apr-19 19:00N 40°41' W 074°05'0 0.0
2017-Apr-19 18:30N 40°41' W 074°05'0 0.0
2017-Apr-19 18:00N 40°41' W 074°05'0 0.0
2017-Apr-19 17:30N 40°41' W 074°05'0 0.0
2017-Apr-19 17:00N 40°41' W 074°05'0 0.0
2017-Apr-19 16:30N 40°41' W 074°05'0 0.0
2017-Apr-19 16:00N 40°41' W 074°05'1 2.1
2017-Apr-19 15:30N 40°40' W 074°04'2 4.2
2017-Apr-19 15:00N 40°40' W 074°01'0 0.1
2017-Apr-19 14:30N 40°40' W 074°01'0 0.0
2017-Apr-19 13:30N 40°40' W 074°01'0 0.0
2017-Apr-19 13:00N 40°40' W 074°01'0 0.0
2017-Apr-19 12:30N 40°40' W 074°01'0 0.1
2017-Apr-19 12:00N 40°40' W 074°01'0 0.0
2017-Apr-19 11:30N 40°40' W 074°01'0 0.1
2017-Apr-19 11:00N 40°40' W 074°01'2 3.9
2017-Apr-19 10:30N 40°39' W 074°04'1 2.7
2017-Apr-19 10:00N 40°41' W 074°05'0 0.0
2017-Apr-19 09:30N 40°41' W 074°05'0 0.0
2017-Apr-19 09:00N 40°41' W 074°05'0 0.0
2017-Apr-19 08:30N 40°41' W 074°05'0 0.0
2017-Apr-19 08:00N 40°41' W 074°05'0 0.0
2017-Apr-19 07:30N 40°41' W 074°05'0 0.0
2017-Apr-19 07:00N 40°41' W 074°05'0 0.0
2017-Apr-19 06:30N 40°41' W 074°05'0 0.0
2017-Apr-19 06:00N 40°41' W 074°05'0 0.0
2017-Apr-19 05:30N 40°41' W 074°05'0 0.0
2017-Apr-19 05:00N 40°41' W 074°05'0 0.0
2017-Apr-19 04:30N 40°41' W 074°05'0 0.0
2017-Apr-19 04:00N 40°41' W 074°05'0 0.0
2017-Apr-19 03:30N 40°41' W 074°05'0 0.0
2017-Apr-19 03:00N 40°41' W 074°05'0 0.0
2017-Apr-19 02:30N 40°41' W 074°05'0 0.0
2017-Apr-19 02:00N 40°41' W 074°05'0 0.0
2017-Apr-19 01:30N 40°41' W 074°05'0 0.0
2017-Apr-19 01:00N 40°41' W 074°05'0 0.0
2017-Apr-19 00:30N 40°41' W 074°05'0 0.0
2017-Apr-19 00:00N 40°41' W 074°05'0 0.0
2017-Apr-18 23:30N 40°41' W 074°05'0 0.0
2017-Apr-18 23:00N 40°41' W 074°05'0 0.0
2017-Apr-18 22:30N 40°41' W 074°05'0 0.0
2017-Apr-18 22:00N 40°41' W 074°05'0 0.0
2017-Apr-18 21:30N 40°41' W 074°05'0 0.0
2017-Apr-18 21:00N 40°41' W 074°05'0 0.0
2017-Apr-18 20:30N 40°41' W 074°05'0 0.0
2017-Apr-18 20:00N 40°41' W 074°05'0 0.0
2017-Apr-18 19:30N 40°41' W 074°05'0 0.1
2017-Apr-18 19:00N 40°41' W 074°05'0 0.0
2017-Apr-18 18:30N 40°41' W 074°05'0 0.1
2017-Apr-18 18:01N 40°41' W 074°05'0 0.0
2017-Apr-18 17:30N 40°41' W 074°05'0 0.0
2017-Apr-18 17:00N 40°41' W 074°05'0 0.0
2017-Apr-18 16:30N 40°41' W 074°05'0 0.1
2017-Apr-18 16:00N 40°41' W 074°05'0 0.0
2017-Apr-18 15:30N 40°41' W 074°05'0 0.0
2017-Apr-18 15:00N 40°41' W 074°05'0 0.0
2017-Apr-18 14:30N 40°41' W 074°05'0 0.0
2017-Apr-18 13:30N 40°41' W 074°05'0 0.0
2017-Apr-18 13:00N 40°41' W 074°05'0 0.0
2017-Apr-18 12:31N 40°41' W 074°05'0 0.0
2017-Apr-18 12:00N 40°41' W 074°05'0 0.0
2017-Apr-18 11:30N 40°41' W 074°05'0 0.0
2017-Apr-18 11:00N 40°41' W 074°05'0 0.1
2017-Apr-18 10:30N 40°41' W 074°05'0 0.0
2017-Apr-18 10:00N 40°41' W 074°05'0 0.0
2017-Apr-18 09:30N 40°41' W 074°05'0 0.0
2017-Apr-18 09:00N 40°41' W 074°05'0 0.0
2017-Apr-18 08:30N 40°41' W 074°05'0 0.0
2017-Apr-18 08:00N 40°41' W 074°05'0 0.0
2017-Apr-18 07:30N 40°41' W 074°05'0 0.0
2017-Apr-18 07:00N 40°41' W 074°05'0 0.0
2017-Apr-18 06:30N 40°41' W 074°05'0 0.0
2017-Apr-18 06:00N 40°41' W 074°05'0 0.0
2017-Apr-18 05:30N 40°41' W 074°05'0 0.0
2017-Apr-18 05:00N 40°41' W 074°05'0 0.0
2017-Apr-18 04:30N 40°41' W 074°05'0 0.0
2017-Apr-18 04:00N 40°41' W 074°05'0 0.0
2017-Apr-18 03:30N 40°41' W 074°05'0 0.0
2017-Apr-18 03:00N 40°41' W 074°05'0 0.0
2017-Apr-18 02:30N 40°41' W 074°05'0 0.0
2017-Apr-18 02:00N 40°41' W 074°05'0 0.0
2017-Apr-18 01:30N 40°41' W 074°05'0 0.0
2017-Apr-18 01:00N 40°41' W 074°05'0 0.0
2017-Apr-18 00:30N 40°41' W 074°05'0 0.4
2017-Apr-18 00:00N 40°40' W 074°04'1 1.2
2017-Apr-17 23:30N 40°40' W 074°04'2 4.7
2017-Apr-17 23:00N 40°41' W 074°01'2 4.7
2017-Apr-17 22:30N 40°42' W 073°58'0 0.1
2017-Apr-17 22:00N 40°42' W 073°58'0 0.0
2017-Apr-17 21:30N 40°42' W 073°58'0 0.0
2017-Apr-17 21:00N 40°42' W 073°58'0 0.0
2017-Apr-17 20:30N 40°42' W 073°58'0 0.0
2017-Apr-17 20:00N 40°42' W 073°58'0 0.0
2017-Apr-17 19:30N 40°42' W 073°58'0 0.0
2017-Apr-17 19:00N 40°42' W 073°58'0 0.0
2017-Apr-17 18:30N 40°42' W 073°58'2 3.8
2017-Apr-17 18:00N 40°41' W 074°01'3 6.1
2017-Apr-17 17:31N 40°41' W 074°04'0 0.2
2017-Apr-17 17:00N 40°41' W 074°05'0 0.0
2017-Apr-17 16:30N 40°41' W 074°05'0 0.0
2017-Apr-17 16:00N 40°41' W 074°05'0 0.0
2017-Apr-17 15:30N 40°41' W 074°05'0 0.0
2017-Apr-17 15:00N 40°41' W 074°05'0 0.0
2017-Apr-17 14:30N 40°41' W 074°05'0 0.0
2017-Apr-17 13:30N 40°41' W 074°05'0 0.0
2017-Apr-17 13:00N 40°41' W 074°05'2 3.4
2017-Apr-17 12:30N 40°39' W 074°03'2 3.4
2017-Apr-17 12:00N 40°40' W 074°01'0 0.1
2017-Apr-17 11:30N 40°40' W 074°01'0 0.1
2017-Apr-17 11:00N 40°40' W 074°01'0 0.6
2017-Apr-17 10:30N 40°39' W 074°01'2 4.2
2017-Apr-17 10:00N 40°40' W 074°04'0 0.6
2017-Apr-17 09:30N 40°40' W 074°04'0 0.0
2017-Apr-17 09:00N 40°40' W 074°04'0 0.0
2017-Apr-17 08:30N 40°40' W 074°04'0 0.0
2017-Apr-17 08:00N 40°40' W 074°04'0 0.0
2017-Apr-17 07:30N 40°40' W 074°04'0 0.0
2017-Apr-17 07:00N 40°40' W 074°04'0 0.0
2017-Apr-17 06:30N 40°40' W 074°04'0 0.0
2017-Apr-17 06:00N 40°40' W 074°04'0 0.0
2017-Apr-17 05:30N 40°40' W 074°04'0 0.0
2017-Apr-17 05:00N 40°40' W 074°04'0 0.0
2017-Apr-17 04:30N 40°40' W 074°04'0 0.0
2017-Apr-17 04:00N 40°40' W 074°04'0 0.0
2017-Apr-17 03:30N 40°40' W 074°04'0 0.0
2017-Apr-17 03:00N 40°40' W 074°04'0 0.0
2017-Apr-17 02:30N 40°40' W 074°04'0 0.0
2017-Apr-17 02:00N 40°40' W 074°04'0 0.0
2017-Apr-17 01:30N 40°40' W 074°04'0 0.0
2017-Apr-17 01:00N 40°40' W 074°04'0 0.0
2017-Apr-17 00:30N 40°40' W 074°04'0 0.0
2017-Apr-17 00:00N 40°40' W 074°04'0 0.0
2017-Apr-16 23:30N 40°40' W 074°04'0 0.0
2017-Apr-16 23:00N 40°40' W 074°04'0 0.0
2017-Apr-16 22:30N 40°40' W 074°04'0 0.0
2017-Apr-16 22:00N 40°40' W 074°04'0 0.0
2017-Apr-16 21:30N 40°40' W 074°04'0 0.5
2017-Apr-16 21:00N 40°41' W 074°05'0 0.0
2017-Apr-16 20:30N 40°41' W 074°05'0 0.0
2017-Apr-16 20:00N 40°41' W 074°05'0 0.0
2017-Apr-16 19:30N 40°41' W 074°05'0 0.0
2017-Apr-16 19:00N 40°41' W 074°05'0 0.0
2017-Apr-16 18:30N 40°41' W 074°05'0 0.0
2017-Apr-16 18:00N 40°41' W 074°05'0 0.0
2017-Apr-16 17:30N 40°41' W 074°05'0 0.0
2017-Apr-16 17:00N 40°41' W 074°05'0 0.0
2017-Apr-16 16:30N 40°41' W 074°05'0 0.0
2017-Apr-16 16:00N 40°41' W 074°05'0 0.0
2017-Apr-16 15:30N 40°41' W 074°05'0 0.0
2017-Apr-16 15:00N 40°41' W 074°05'0 0.0
2017-Apr-16 14:00N 40°41' W 074°05'0 0.0
2017-Apr-16 13:30N 40°41' W 074°05'0 0.0
2017-Apr-16 13:00N 40°41' W 074°05'0 0.0
2017-Apr-16 12:30N 40°41' W 074°05'0 0.0
2017-Apr-16 12:00N 40°41' W 074°05'0 0.0
2017-Apr-16 11:30N 40°41' W 074°05'0 0.0
2017-Apr-16 11:00N 40°41' W 074°05'0 0.0
2017-Apr-16 10:30N 40°41' W 074°05'0 0.0
2017-Apr-16 10:00N 40°41' W 074°05'0 0.0
2017-Apr-16 09:30N 40°41' W 074°05'0 0.0
2017-Apr-16 09:00N 40°41' W 074°05'0 0.0
2017-Apr-16 08:30N 40°41' W 074°05'0 0.0
2017-Apr-16 08:00N 40°41' W 074°05'0 0.0
2017-Apr-16 07:30N 40°41' W 074°05'0 0.0
2017-Apr-16 07:00N 40°41' W 074°05'0 0.0
2017-Apr-16 06:30N 40°41' W 074°05'0 0.0
2017-Apr-16 06:00N 40°41' W 074°05'0 0.0
2017-Apr-16 05:30N 40°41' W 074°05'0 0.0
2017-Apr-16 05:00N 40°41' W 074°05'0 0.0
2017-Apr-16 04:30N 40°41' W 074°05'0 0.0
2017-Apr-16 04:00N 40°41' W 074°05'0 0.0
2017-Apr-16 03:30N 40°41' W 074°05'0 0.0
2017-Apr-16 03:00N 40°41' W 074°05'0 0.0
2017-Apr-16 02:30N 40°41' W 074°05'0 0.0
2017-Apr-16 02:00N 40°41' W 074°05'0 0.0
2017-Apr-16 01:31N 40°41' W 074°05'0 0.0
2017-Apr-16 01:00N 40°41' W 074°05'0 0.0
2017-Apr-16 00:30N 40°41' W 074°05'0 0.0
2017-Apr-16 00:00N 40°41' W 074°05'0 0.0
2017-Apr-15 23:30N 40°41' W 074°05'0 0.0
2017-Apr-15 23:00N 40°41' W 074°05'0 0.0
2017-Apr-15 22:30N 40°41' W 074°05'0 0.0
2017-Apr-15 22:00N 40°41' W 074°05'0 0.0
2017-Apr-15 21:30N 40°41' W 074°05'0 0.0
2017-Apr-15 21:00N 40°41' W 074°05'0 0.0
2017-Apr-15 20:30N 40°41' W 074°05'0 0.0
2017-Apr-15 20:00N 40°41' W 074°05'0 0.0
2017-Apr-15 19:30N 40°41' W 074°05'0 0.0
2017-Apr-15 19:00N 40°41' W 074°05'0 0.0
2017-Apr-15 18:30N 40°41' W 074°05'0 0.0
2017-Apr-15 18:00N 40°41' W 074°05'0 0.0
2017-Apr-15 17:30N 40°41' W 074°05'0 0.0
2017-Apr-15 17:00N 40°41' W 074°05'0 0.0
2017-Apr-15 16:30N 40°41' W 074°05'0 0.0
2017-Apr-15 16:00N 40°41' W 074°05'0 0.0
2017-Apr-15 15:30N 40°41' W 074°05'0 0.0
2017-Apr-15 15:00N 40°41' W 074°05'0 0.0
2017-Apr-15 14:00N 40°41' W 074°05'0 0.0
2017-Apr-15 13:30N 40°41' W 074°05'0 0.0
2017-Apr-15 13:00N 40°41' W 074°05'0 0.0
2017-Apr-15 12:30N 40°41' W 074°05'0 0.0
2017-Apr-15 12:00N 40°41' W 074°05'0 0.0
2017-Apr-15 11:30N 40°41' W 074°05'0 0.0
2017-Apr-15 11:00N 40°41' W 074°05'0 0.0
2017-Apr-15 10:30N 40°41' W 074°05'0 0.0
2017-Apr-15 10:00N 40°41' W 074°05'0 0.0
2017-Apr-15 09:30N 40°41' W 074°05'0 0.0
2017-Apr-15 09:00N 40°41' W 074°05'0 0.0
2017-Apr-15 08:30N 40°41' W 074°05'0 0.0
2017-Apr-15 08:00N 40°41' W 074°05'0 0.0
2017-Apr-15 07:30N 40°41' W 074°05'0 0.0
2017-Apr-15 07:00N 40°41' W 074°05'0 0.0
2017-Apr-15 06:30N 40°41' W 074°05'0 0.0
2017-Apr-15 06:00N 40°41' W 074°05'0 0.0
2017-Apr-15 05:30N 40°41' W 074°05'0 0.0
2017-Apr-15 05:00N 40°41' W 074°05'0 0.0
2017-Apr-15 04:30N 40°41' W 074°05'0 0.0
2017-Apr-15 04:00N 40°41' W 074°05'0 0.0
2017-Apr-15 03:30N 40°41' W 074°05'0 0.0
2017-Apr-15 03:00N 40°41' W 074°05'0 0.0
2017-Apr-15 02:30N 40°41' W 074°05'0 0.0
2017-Apr-15 02:00N 40°41' W 074°05'0 0.0
2017-Apr-15 01:30N 40°41' W 074°05'0 0.0
2017-Apr-15 01:00N 40°41' W 074°05'0 0.0
2017-Apr-15 00:30N 40°41' W 074°05'0 0.0
2017-Apr-15 00:00N 40°41' W 074°05'0 0.0
2017-Apr-14 23:30N 40°41' W 074°05'0 0.0
2017-Apr-14 23:00N 40°41' W 074°05'0 0.0
2017-Apr-14 22:30N 40°41' W 074°05'0 0.0
2017-Apr-14 22:00N 40°41' W 074°05'0 0.0
2017-Apr-14 21:30N 40°41' W 074°05'0 0.0
2017-Apr-14 21:00N 40°41' W 074°05'0 0.0
2017-Apr-14 20:30N 40°41' W 074°05'0 0.0
2017-Apr-14 20:00N 40°41' W 074°05'0 0.0
2017-Apr-14 19:30N 40°41' W 074°05'0 0.0
2017-Apr-14 19:00N 40°41' W 074°05'0 0.4
2017-Apr-14 18:30N 40°41' W 074°04'0 0.2
2017-Apr-14 18:00N 40°40' W 074°04'0 0.1
2017-Apr-14 17:30N 40°40' W 074°04'0 0.2
2017-Apr-14 17:00N 40°41' W 074°05'0 0.0
2017-Apr-14 16:30N 40°41' W 074°05'0 0.0
2017-Apr-14 16:00N 40°41' W 074°05'0 0.0
2017-Apr-14 15:30N 40°41' W 074°05'0 0.0
2017-Apr-14 15:00N 40°41' W 074°05'0 0.0
2017-Apr-14 14:30N 40°41' W 074°05'0 0.0
2017-Apr-14 13:30N 40°41' W 074°05'0 0.0
2017-Apr-14 13:00N 40°41' W 074°05'0 0.0
2017-Apr-14 12:30N 40°41' W 074°05'0 0.0
2017-Apr-14 12:01N 40°41' W 074°05'0 0.0
2017-Apr-14 11:31N 40°41' W 074°05'0 0.0
2017-Apr-14 11:00N 40°41' W 074°05'0 0.0
2017-Apr-14 10:30N 40°41' W 074°05'0 0.0
2017-Apr-14 10:00N 40°41' W 074°05'0 0.0
2017-Apr-14 09:30N 40°41' W 074°05'0 0.0
2017-Apr-14 09:00N 40°41' W 074°05'0 0.0
2017-Apr-14 08:30N 40°41' W 074°05'0 0.0
2017-Apr-14 08:00N 40°41' W 074°05'0 0.0
2017-Apr-14 07:30N 40°41' W 074°05'0 0.0
2017-Apr-14 07:00N 40°41' W 074°05'0 0.0
2017-Apr-14 06:30N 40°41' W 074°05'0 0.0
2017-Apr-14 06:00N 40°41' W 074°05'0 0.0
2017-Apr-14 05:30N 40°41' W 074°05'0 0.0
2017-Apr-14 05:00N 40°41' W 074°05'0 0.0
2017-Apr-14 04:30N 40°41' W 074°05'0 0.0
2017-Apr-14 04:00N 40°41' W 074°05'0 0.0
2017-Apr-14 03:30N 40°41' W 074°05'0 0.0
2017-Apr-14 03:00N 40°41' W 074°05'0 0.0
2017-Apr-14 02:30N 40°41' W 074°05'0 0.0
2017-Apr-14 02:00N 40°41' W 074°05'0 0.0
2017-Apr-14 01:30N 40°41' W 074°05'0 0.0
2017-Apr-14 01:00N 40°41' W 074°05'0 0.0
2017-Apr-14 00:30N 40°41' W 074°05'0 0.0
2017-Apr-14 00:00N 40°41' W 074°05'0 0.0
2017-Apr-13 23:30N 40°41' W 074°05'0 0.0
2017-Apr-13 23:00N 40°41' W 074°05'0 0.0
2017-Apr-13 22:30N 40°41' W 074°05'0 0.0
2017-Apr-13 22:00N 40°41' W 074°05'0 0.0
2017-Apr-13 21:30N 40°41' W 074°05'0 0.0
2017-Apr-13 21:00N 40°41' W 074°05'0 0.0
2017-Apr-13 20:30N 40°41' W 074°05'0 0.0
2017-Apr-13 20:00N 40°41' W 074°05'0 0.0
2017-Apr-13 19:30N 40°41' W 074°05'0 0.0
2017-Apr-13 19:00N 40°41' W 074°05'0 0.0
2017-Apr-13 18:30N 40°41' W 074°05'0 0.0
2017-Apr-13 18:00N 40°41' W 074°05'0 0.0
2017-Apr-13 17:30N 40°41' W 074°05'0 0.0
2017-Apr-13 17:00N 40°41' W 074°05'0 0.0
2017-Apr-13 16:30N 40°41' W 074°05'0 0.0
2017-Apr-13 16:00N 40°41' W 074°05'0 0.0
2017-Apr-13 15:30N 40°41' W 074°05'0 0.0
2017-Apr-13 15:00N 40°41' W 074°05'0 0.0
2017-Apr-13 14:00N 40°41' W 074°05'0 0.5
2017-Apr-13 13:31N 40°40' W 074°04'2 3.0
2017-Apr-13 13:00N 40°39' W 074°05'0 0.1
2017-Apr-13 12:30N 40°39' W 074°05'0 0.0
2017-Apr-13 12:00N 40°39' W 074°05'0 0.0
2017-Apr-13 11:30N 40°39' W 074°05'0 0.0
2017-Apr-13 11:00N 40°39' W 074°05'0 0.0
2017-Apr-13 10:30N 40°39' W 074°05'2 3.2
2017-Apr-13 10:00N 40°40' W 074°04'0 0.9
2017-Apr-13 09:30N 40°41' W 074°05'0 0.0
2017-Apr-13 09:00N 40°41' W 074°05'0 0.0
2017-Apr-13 08:30N 40°41' W 074°05'0 0.0
2017-Apr-13 08:00N 40°41' W 074°05'0 0.0
2017-Apr-13 07:30N 40°41' W 074°05'0 0.0
2017-Apr-13 07:00N 40°41' W 074°05'0 0.0
2017-Apr-13 06:30N 40°41' W 074°05'0 0.0
2017-Apr-13 06:00N 40°41' W 074°05'0 0.0
2017-Apr-13 05:30N 40°41' W 074°05'0 0.0
2017-Apr-13 05:00N 40°41' W 074°05'0 0.0
2017-Apr-13 04:30N 40°41' W 074°05'0 0.0
2017-Apr-13 04:00N 40°41' W 074°05'0 0.0
2017-Apr-13 03:30N 40°41' W 074°05'0 0.0
2017-Apr-13 03:00N 40°41' W 074°05'0 0.0
2017-Apr-13 02:30N 40°41' W 074°05'0 0.0
2017-Apr-13 02:00N 40°41' W 074°05'0 0.0
2017-Apr-13 01:30N 40°41' W 074°05'0 0.0
2017-Apr-13 01:00N 40°41' W 074°05'0 0.0
2017-Apr-13 00:30N 40°41' W 074°05'0 0.0
2017-Apr-13 00:00N 40°41' W 074°05'  

Dump ship's entire track history